Latest Weather Observations for Frankston (Ballam Park)

IDV60901

Issued at 7:51 am EDT Friday 30 October 2020 (issued every 10 minutes, with the page automatically refreshed every 10 minutes)

About weather observations | Map of Melbourne area stations | Latest observations for Melbourne area | Other Formats
Station Details ID: 086388 Name: FRANKSTON (BALLAM PARK) Lat: -38.15 Lon: 145.16 Height: 58.47 m
Data from the previous 72 hours. | See also: Recent months at Frankston (Ballam Park)
Date/Time
EDT
Temp
°C
App
Temp
°C
Dew
Point
°C
Rel
Hum
%
Delta-T
°C
Wind Press
QNH
hPa
Press
MSL
hPa
Rain since
9am
mm
Dir  Spd
km/h
Gust
km/h
Spd
kts
Gust
kts
30/07:30am 13.2 13.0 11.9 92 0.7 S 4 7 2 4 1010.4 1010.3 0.0
30/07:00am 12.8 12.6 11.7 93 0.6 SSE 4 7 2 4 1010.3 1010.2 0.0
30/06:30am 12.6 12.3 11.3 92 0.7 S 4 9 2 5 1010.2 1010.1 0.0
30/06:00am 12.5 12.5 11.2 92 0.7 SSE 2 6 1 3 1010.0 1009.9 0.0
30/05:30am 12.6 13.0 11.2 91 0.7 CALM 0 0 0 0 1009.9 1009.8 0.0
30/05:00am 12.5 12.9 11.1 91 0.7 CALM 0 0 0 0 1009.8 1009.7 0.0
30/04:30am 12.4 12.7 10.8 90 0.8 CALM 0 4 0 2 1009.6 1009.5 0.0
30/04:00am 12.4 11.9 10.6 89 0.9 S 4 7 2 4 1009.3 1009.2 0.0
30/03:30am 12.3 12.1 10.5 89 0.9 S 2 6 1 3 1009.5 1009.4 0.0
30/03:00am 12.2 11.7 10.8 91 0.7 SSE 4 7 2 4 1009.5 1009.4 0.0
30/02:30am 11.6 11.4 10.3 92 0.7 SE 2 4 1 2 1009.5 1009.4 0.0
30/02:00am 11.8 11.6 10.4 91 0.7 SSE 2 6 1 3 1009.7 1009.6 0.0
30/01:30am 12.2 11.6 10.4 89 0.9 SE 4 6 2 3 1009.9 1009.8 0.0
30/01:00am 12.9 12.0 10.8 87 1.1 SE 6 7 3 4 1010.3 1010.2 0.0
30/12:30am 13.0 13.2 10.7 86 1.2 CALM 0 4 0 2 1010.6 1010.5 0.0
30/12:00am 13.5 13.8 10.9 84 1.4 CALM 0 0 0 0 1010.9 1010.8 0.0
 
Date/Time
EDT
Temp
°C
App
Temp
°C
Dew
Point
°C
Rel
Hum
%
Delta-T
°C
Wind Press
QNH
hPa
Press
MSL
hPa
Rain since
9am
mm
Dir  Spd
km/h
Gust
km/h
Spd
kts
Gust
kts
29/11:30pm 14.1 14.0 10.7 80 1.8 S 2 4 1 2 1010.8 1010.7 0.0
29/11:00pm 14.0 14.2 10.6 80 1.8 CALM 0 2 0 1 1011.0 1010.9 0.0
29/10:30pm 14.1 14.5 11.1 82 1.6 CALM 0 0 0 0 1011.2 1011.1 0.0
29/10:00pm 14.2 14.3 11.4 83 1.5 WSW 2 4 1 2 1011.3 1011.2 0.0
29/09:30pm 14.5 14.7 12.0 85 1.4 W 2 9 1 5 1011.3 1011.2 0.0
29/09:00pm 15.1 14.6 12.1 82 1.6 W 6 9 3 5 1011.0 1010.9 0.0
29/08:30pm 15.7 15.0 10.2 70 2.9 W 4 7 2 4 1010.5 1010.4 0.0
29/08:00pm 15.8 16.0 11.8 77 2.2 WNW 2 7 1 4 1010.1 1010.0 0.0
29/07:30pm 16.6 15.9 8.6 59 4.1 W 2 6 1 3 1009.7 1009.6 0.0
29/07:00pm 17.2 15.9 7.5 53 4.9 W 4 7 2 4 1009.7 1009.6 0.0
29/06:30pm 17.8 16.3 7.0 49 5.4 W 4 9 2 5 1009.4 1009.3 0.0
29/06:00pm 18.1 16.5 8.1 52 5.1 WSW 6 13 3 7 1009.4 1009.3 0.0
29/05:30pm 17.8 16.7 8.6 55 4.8 SW 4 9 2 5 1009.3 1009.2 0.0
29/05:00pm 18.1 16.3 9.5 57 4.5 WSW 9 22 5 12 1009.1 1009.1 0.0
29/04:30pm 18.6 17.2 9.4 55 4.9 W 7 24 4 13 1009.3 1009.2 0.0
29/04:00pm 20.7 19.5 12.7 60 4.5 WSW 11 24 6 13 1009.3 1009.2 0.0
29/03:30pm 19.9 18.0 11.9 60 4.5 WSW 13 37 7 20 1009.4 1009.3 0.0
29/03:00pm 23.0 20.4 7.9 38 8.0 WNW 11 17 6 9 1009.0 1009.0 0.0
29/02:30pm 22.4 20.3 5.8 34 8.4 NW 6 11 3 6 1009.1 1009.1 0.0
29/02:00pm 22.9 20.0 4.9 31 9.0 WNW 9 19 5 10 1009.4 1009.3 0.0
29/01:30pm 22.9 21.3 7.8 38 7.9 WNW 6 11 3 6 1009.6 1009.5 0.0
29/01:00pm 22.5 19.5 5.9 34 8.4 NW 11 20 6 11 1010.0 1009.9 0.0
29/12:30pm 22.0 20.9 9.9 46 6.6 NW 6 11 3 6 1010.5 1010.4 0.0
29/12:00pm 22.0 20.6 9.5 45 6.7 NW 7 13 4 7 1010.9 1010.8 0.0
29/11:30am 21.6 20.4 9.5 46 6.5 WNW 6 11 3 6 1011.2 1011.1 0.0
29/11:00am 20.2 19.3 10.6 54 5.2 NNW 6 11 3 6 1011.4 1011.3 0.0
29/10:30am 19.1 18.1 10.9 59 4.5 N 7 13 4 7 1011.8 1011.7 0.0
29/10:00am 18.8 18.2 11.6 63 4.0 N 6 11 3 6 1011.8 1011.7 0.0
29/09:30am 17.6 17.1 10.9 65 3.6 N 4 7 2 4 1012.0 1011.9 0.0
29/09:00am 16.5 16.5 11.2 71 2.9 NNW 2 7 1 4 1012.1 1012.0 0.0
29/08:30am 15.9 15.6 11.5 75 2.4 NE 4 7 2 4 1012.1 1012.0 0.0
29/08:00am 15.3 15.3 11.3 77 2.1 ENE 2 6 1 3 1012.2 1012.1 0.0
29/07:30am 13.2 12.5 10.2 82 1.6 ESE 4 6 2 3 1012.1 1012.0 0.0
29/07:00am 11.1 11.1 9.9 92 0.6 CALM 0 0 0 0 1011.9 1011.8 0.0
29/06:30am 10.7 10.6 9.6 93 0.6 CALM 0 4 0 2 1012.1 1012.0 0.0
29/06:00am 10.4 10.2 9.2 92 0.6 CALM 0 0 0 0 1012.0 1011.9 0.0
29/05:30am 10.9 10.1 9.7 92 0.6 ESE 4 6 2 3 1011.7 1011.6 0.0
29/05:00am 10.9 10.9 9.7 92 0.6 CALM 0 0 0 0 1012.3 1012.2 0.0
29/04:30am 11.4 10.7 10.0 91 0.7 SE 4 6 2 3 1012.4 1012.3 0.0
29/04:00am 12.0 11.4 10.4 90 0.8 ESE 4 6 2 3 1012.8 1012.7 0.0
29/03:30am 12.1 11.5 10.5 90 0.8 ESE 4 7 2 4 1013.1 1013.0 0.0
29/03:00am 12.2 11.3 10.6 90 0.8 ESE 6 9 3 5 1013.3 1013.2 0.0
29/02:30am 12.4 11.5 10.6 89 0.9 E 6 11 3 6 1013.6 1013.5 0.0
29/02:00am 12.6 11.7 10.7 88 1.0 ESE 6 13 3 7 1013.9 1013.8 0.0
29/01:30am 12.7 11.6 10.8 88 1.0 E 7 15 4 8 1014.4 1014.3 0.0
29/01:00am 12.9 11.5 10.8 87 1.1 E 9 15 5 8 1014.7 1014.7 0.0
29/12:30am 13.2 11.8 10.9 86 1.2 ESE 9 17 5 9 1015.0 1015.0 0.0
29/12:00am 13.2 11.8 10.9 86 1.2 ESE 9 17 5 9 1014.9 1014.9 0.0
 
Date/Time
EDT
Temp
°C
App
Temp
°C
Dew
Point
°C
Rel
Hum
%
Delta-T
°C
Wind Press
QNH
hPa
Press
MSL
hPa
Rain since
9am
mm
Dir  Spd
km/h
Gust
km/h
Spd
kts
Gust
kts
28/11:30pm 13.5 11.3 10.9 84 1.4 ESE 13 24 7 13 1015.1 1015.1 0.0
28/11:00pm 13.9 12.6 11.1 83 1.5 ESE 9 20 5 11 1015.3 1015.3 0.0
28/10:30pm 14.1 12.4 11.1 82 1.6 ESE 11 19 6 10 1015.6 1015.6 0.0
28/10:00pm 14.5 12.8 11.1 80 1.8 ESE 11 20 6 11 1015.9 1015.9 0.0
28/09:30pm 15.1 13.4 11.1 77 2.1 ESE 11 24 6 13 1016.1 1016.1 0.0
28/09:00pm 15.9 14.6 11.3 74 2.5 ESE 9 22 5 12 1015.9 1015.9 0.0
28/08:30pm 16.8 15.6 11.5 71 2.9 ESE 9 19 5 10 1015.5 1015.5 0.0
28/08:00pm 17.7 17.1 11.7 68 3.3 ESE 6 13 3 7 1015.3 1015.3 0.0
28/07:30pm 18.3 17.5 11.6 65 3.7 ESE 7 15 4 8 1015.1 1015.1 0.0
28/07:00pm 19.4 18.1 11.4 60 4.4 SE 9 17 5 9 1014.8 1014.8 0.0
28/06:30pm 20.3 19.0 11.2 56 5.0 SE 9 17 5 9 1014.7 1014.7 0.0
28/06:00pm 20.2 18.8 10.9 55 5.1 E 9 17 5 9 1014.8 1014.8 0.0
28/05:30pm 20.4 19.0 10.8 54 5.3 ESE 9 19 5 10 1014.8 1014.8 0.0
28/05:00pm 21.1 20.0 10.6 51 5.7 SSE 7 17 4 9 1015.0 1015.0 0.0
28/04:30pm 20.7 19.4 9.3 48 6.1 SE 6 11 3 6 1015.1 1015.1 0.0
28/04:00pm 20.4 18.6 9.6 50 5.8 ESE 9 15 5 8 1015.4 1015.4 0.0
28/03:30pm 20.6 19.4 11.5 56 5.0 SE 9 17 5 9 1015.6 1015.6 0.0
28/03:00pm 19.3 18.1 11.6 61 4.2 S 9 17 5 9 1016.2 1016.2 0.0
28/02:30pm 19.8 19.0 11.8 60 4.4 SE 7 15 4 8 1016.5 1016.5 0.0
28/02:00pm 20.0 20.3 12.3 61 4.3 SSE 2 6 1 3 1016.9 1016.9 0.0
28/01:30pm 18.7 18.5 11.8 64 3.8 SW 4 7 2 4 1017.4 1017.4 0.0
28/01:00pm 19.7 19.5 11.7 60 4.4 SE 4 7 2 4 1017.7 1017.7 0.0
28/12:30pm 19.4 19.6 13.1 67 3.6 S 4 9 2 5 1018.2 1018.2 0.0
28/12:00pm 18.2 17.7 12.0 67 3.4 SE 6 13 3 7 1018.8 1018.8 0.0
28/11:30am 17.5 17.2 11.3 67 3.4 SSE 4 9 2 5 1019.1 1019.1 0.0
28/11:00am 16.8 16.0 10.9 68 3.2 ESE 6 9 3 5 1019.2 1019.2 0.0
28/10:30am 16.6 15.8 11.7 73 2.7 E 7 13 4 7 1019.4 1019.4 0.0
28/10:00am 15.5 14.6 11.3 76 2.3 ENE 7 15 4 8 1019.7 1019.7 0.0
28/09:30am 14.6 13.5 10.8 78 2.0 E 7 13 4 7 1019.8 1019.8 0.0
28/09:00am 14.1 13.0 10.7 80 1.8 E 7 17 4 9 1019.9 1019.9 0.0
28/08:30am 13.9 12.9 10.9 82 1.6 ESE 7 13 4 7 1020.0 1020.0 0.0
28/08:00am 13.0 11.5 10.5 85 1.3 ESE 9 15 5 8 1019.8 1019.8 0.0
28/07:30am 12.4 10.8 10.3 87 1.1 ESE 9 20 5 11 1019.6 1019.6 0.0
28/07:00am 12.4 10.8 10.1 86 1.2 E 9 17 5 9 1019.2 1019.2 0.0
28/06:30am 12.1 10.0 9.8 86 1.2 ESE 11 20 6 11 1018.9 1018.9 0.0
28/06:00am 12.0 9.9 9.7 86 1.2 ESE 11 20 6 11 1018.7 1018.7 0.0
28/05:30am 11.8 9.6 9.5 86 1.2 SE 11 20 6 11 1018.5 1018.5 0.0
28/05:00am 11.8 9.6 9.5 86 1.2 SE 11 20 6 11 1018.7 1018.7 0.0
28/04:30am 11.6 9.4 9.3 86 1.2 SE 11 20 6 11 1018.8 1018.8 0.0
28/04:00am 11.4 9.1 9.1 86 1.1 SE 11 17 6 9 1018.7 1018.7 0.0
28/03:30am 11.5 9.3 9.4 87 1.1 SE 11 20 6 11 1018.9 1018.9 0.0
28/03:00am 11.5 9.3 9.2 86 1.2 SE 11 19 6 10 1019.1 1019.1 0.0
28/02:30am 11.7 9.5 9.4 86 1.2 ESE 11 20 6 11 1019.5 1019.5 0.0
28/02:00am 11.8 10.0 9.5 86 1.2 SE 9 19 5 10 1020.0 1020.0 0.0
28/01:30am 11.6 9.4 9.3 86 1.2 SE 11 20 6 11 1020.4 1020.4 0.0
28/01:00am 11.6 9.3 9.0 84 1.3 SE 11 22 6 12 1020.7 1020.7 0.0
28/12:30am 11.9 9.6 9.1 83 1.4 SE 11 20 6 11 1020.9 1020.9 0.0
28/12:00am 11.8 9.1 8.8 82 1.5 SE 13 28 7 15 1021.0 1021.0 0.0
 
Date/Time
EDT
Temp
°C
App
Temp
°C
Dew
Point
°C
Rel
Hum
%
Delta-T
°C
Wind Press
QNH
hPa
Press
MSL
hPa
Rain since
9am
mm
Dir  Spd
km/h
Gust
km/h
Spd
kts
Gust
kts
27/11:30pm 11.9 8.8 8.7 81 1.6 SE 15 26 8 14 1021.3 1021.3 0.0
27/11:00pm 12.0 8.9 8.8 81 1.6 SE 15 30 8 16 1021.5 1021.5 0.0
27/10:30pm 12.1 9.4 8.9 81 1.6 SE 13 28 7 15 1021.6 1021.6 0.0
27/10:00pm 12.3 9.3 9.1 81 1.6 ESE 15 24 8 13 1021.7 1021.7 0.0
27/09:30pm 12.4 9.4 9.1 80 1.7 ESE 15 26 8 14 1021.8 1021.8 0.0
27/09:00pm 12.7 9.7 9.2 79 1.8 ESE 15 26 8 14 1021.6 1021.6 0.0
27/08:30pm 13.1 10.1 9.2 77 2.0 ESE 15 30 8 16 1021.6 1021.6 0.0
27/08:00pm 13.2 10.7 9.6 79 1.8 ESE 13 28 7 15 1021.4 1021.4 0.0
27/07:30pm 13.5 10.6 9.7 78 2.0 ESE 15 28 8 15 1021.2 1021.2 0.0
27/07:00pm 14.3 10.7 9.7 74 2.4 ESE 19 35 10 19 1021.1 1021.1 0.0
27/06:30pm 14.7 11.5 9.9 73 2.5 ESE 17 32 9 17 1020.9 1020.9 0.0
27/06:00pm 14.8 11.2 10.0 73 2.5 ESE 19 32 10 17 1020.8 1020.8 0.0
27/05:30pm 15.4 11.6 9.7 69 3.0 ESE 20 33 11 18 1020.6 1020.6 0.0
27/05:00pm 16.9 12.3 9.6 62 3.8 ESE 24 41 13 22 1020.5 1020.5 0.0
27/04:30pm 16.9 13.7 10.1 64 3.6 ESE 17 35 9 19 1020.5 1020.5 0.0
27/04:00pm 16.1 11.9 9.8 66 3.3 ESE 22 37 12 20 1020.6 1020.6 0.0
27/03:30pm 16.8 12.2 9.7 63 3.7 ESE 24 41 13 22 1020.9 1020.9 0.0
27/03:00pm 16.9 13.4 10.3 65 3.5 ESE 19 39 10 21 1021.3 1021.3 0.0
27/02:30pm 17.2 13.7 10.1 63 3.8 ESE 19 43 10 23 1021.5 1021.5 0.0
27/02:00pm 17.0 12.8 9.7 62 3.8 ESE 22 50 12 27 1021.7 1021.7 0.0
27/01:30pm 16.6 12.7 9.3 62 3.8 ESE 20 46 11 25 1022.0 1022.0 0.0
27/01:00pm 16.6 12.7 9.5 63 3.7 ESE 20 39 11 21 1022.2 1022.2 0.0
27/12:30pm 16.3 12.0 9.5 64 3.5 ESE 22 39 12 21 1022.6 1022.6 0.0
27/12:00pm 15.7 11.0 9.1 65 3.4 ESE 24 39 13 21 1023.0 1023.0 0.0
27/11:30am 15.6 11.5 8.8 64 3.5 ESE 20 35 11 19 1023.1 1023.1 0.0
27/11:00am 15.8 11.2 8.3 61 3.8 E 22 39 12 21 1023.2 1023.2 0.0
27/10:30am 15.7 12.1 9.8 68 3.1 ESE 19 43 10 23 1023.4 1023.4 0.0
27/10:00am 14.0 10.1 8.8 71 2.6 ESE 19 33 10 18 1023.7 1023.7 0.0
27/09:30am 13.2 9.4 8.9 75 2.2 ESE 19 39 10 21 1023.7 1023.7 0.0
27/09:00am 13.0 9.1 8.7 75 2.1 ESE 19 33 10 18 1023.8 1023.8 0.0
27/08:30am 12.4 8.8 8.5 77 1.9 ESE 17 30 9 16 1023.8 1023.8 0.0
27/08:00am 11.5 7.3 8.4 81 1.5 ESE 20 39 11 21 1024.0 1024.0 0.0

Latest Capital City Observations: Canberra | Sydney | Melbourne | Brisbane | Adelaide | Perth | Hobart | Darwin

Other formats

Comma delimited format used in spreadsheet applications
http://www.bom.gov.au/fwo/IDV60901/IDV60901.94876.axf

JavaScript Object Notation format (JSON) in row-major order
http://www.bom.gov.au/fwo/IDV60901/IDV60901.94876.json

Data quality

Most of these data are generated automatically and are frequently updated. Quality checks on data are not normally performed. It is possible for incorrect values to appear. Refer to information at About Latest Weather Observations and please check the disclaimer before using these data.